sensor_id;sensor_type;location;lat;lon;timestamp;P1;durP1;ratioP1;P2;durP2;ratioP2
80679;SDS011;70043;51.982;-8.514;2023-08-24T00:02:16;5.93;;;0.95;;
80679;SDS011;70043;51.982;-8.514;2023-08-24T00:04:44;3.47;;;0.70;;
80679;SDS011;70043;51.982;-8.514;2023-08-24T00:07:11;5.82;;;1.13;;
80679;SDS011;70043;51.982;-8.514;2023-08-24T00:09:38;5.68;;;1.02;;
80679;SDS011;70043;51.982;-8.514;2023-08-24T00:12:07;7.18;;;0.88;;
80679;SDS011;70043;51.982;-8.514;2023-08-24T00:14:36;4.25;;;1.10;;
80679;SDS011;70043;51.982;-8.514;2023-08-24T00:17:03;4.13;;;1.30;;
80679;SDS011;70043;51.982;-8.514;2023-08-24T00:19:30;4.72;;;1.40;;
80679;SDS011;70043;51.982;-8.514;2023-08-24T00:21:57;6.28;;;0.80;;
80679;SDS011;70043;51.982;-8.514;2023-08-24T00:24:26;3.03;;;1.13;;
80679;SDS011;70043;51.982;-8.514;2023-08-24T00:26:53;3.97;;;0.70;;
80679;SDS011;70043;51.982;-8.514;2023-08-24T00:29:20;3.25;;;1.13;;
80679;SDS011;70043;51.982;-8.514;2023-08-24T00:31:54;2.60;;;0.73;;
80679;SDS011;70043;51.982;-8.514;2023-08-24T00:34:28;5.63;;;1.00;;
80679;SDS011;70043;51.982;-8.514;2023-08-24T00:36:55;2.25;;;0.75;;
80679;SDS011;70043;51.982;-8.514;2023-08-24T00:39:24;4.10;;;1.00;;
80679;SDS011;70043;51.982;-8.514;2023-08-24T00:41:52;5.70;;;0.80;;
80679;SDS011;70043;51.982;-8.514;2023-08-24T00:44:18;2.30;;;0.73;;
80679;SDS011;70043;51.982;-8.514;2023-08-24T00:46:45;3.03;;;1.20;;
80679;SDS011;70043;51.982;-8.514;2023-08-24T00:49:17;3.40;;;1.23;;
80679;SDS011;70043;51.982;-8.514;2023-08-24T00:51:44;1.30;;;0.70;;
80679;SDS011;70043;51.982;-8.514;2023-08-24T00:54:12;4.70;;;0.90;;
80679;SDS011;70043;51.982;-8.514;2023-08-24T00:56:39;4.28;;;1.08;;
80679;SDS011;70043;51.982;-8.514;2023-08-24T00:59:08;3.45;;;0.80;;
80679;SDS011;70043;51.982;-8.514;2023-08-24T01:01:35;2.95;;;0.80;;
80679;SDS011;70043;51.982;-8.514;2023-08-24T01:04:01;4.05;;;0.80;;
80679;SDS011;70043;51.982;-8.514;2023-08-24T01:06:33;2.70;;;0.98;;
80679;SDS011;70043;51.982;-8.514;2023-08-24T01:08:59;1.55;;;0.70;;
80679;SDS011;70043;51.982;-8.514;2023-08-24T01:11:29;2.05;;;1.00;;
80679;SDS011;70043;51.982;-8.514;2023-08-24T01:14:02;3.22;;;0.68;;
80679;SDS011;70043;51.982;-8.514;2023-08-24T01:16:31;2.40;;;0.60;;
80679;SDS011;70043;51.982;-8.514;2023-08-24T01:19:05;4.03;;;0.95;;
80679;SDS011;70043;51.982;-8.514;2023-08-24T01:21:35;5.15;;;0.85;;
80679;SDS011;70043;51.982;-8.514;2023-08-24T01:24:02;4.35;;;0.98;;
80679;SDS011;70043;51.982;-8.514;2023-08-24T01:26:35;4.43;;;0.73;;
80679;SDS011;70043;51.982;-8.514;2023-08-24T01:29:03;1.30;;;0.55;;
80679;SDS011;70043;51.982;-8.514;2023-08-24T01:31:30;3.20;;;0.70;;
80679;SDS011;70043;51.982;-8.514;2023-08-24T01:36:30;3.42;;;0.88;;
80679;SDS011;70043;51.982;-8.514;2023-08-24T01:38:58;3.28;;;0.75;;
80679;SDS011;70043;51.982;-8.514;2023-08-24T01:41:34;2.30;;;1.00;;
80679;SDS011;70043;51.982;-8.514;2023-08-24T01:44:04;2.53;;;0.70;;
80679;SDS011;70043;51.982;-8.514;2023-08-24T01:46:30;6.88;;;1.00;;
80679;SDS011;70043;51.982;-8.514;2023-08-24T01:48:58;4.55;;;1.00;;
80679;SDS011;70043;51.982;-8.514;2023-08-24T01:51:26;5.47;;;1.15;;
80679;SDS011;70043;51.982;-8.514;2023-08-24T01:53:55;4.63;;;1.13;;
80679;SDS011;70043;51.982;-8.514;2023-08-24T01:56:22;1.88;;;0.73;;
80679;SDS011;70043;51.982;-8.514;2023-08-24T01:58:52;1.25;;;0.60;;
80679;SDS011;70043;51.982;-8.514;2023-08-24T02:01:19;2.63;;;0.70;;
80679;SDS011;70043;51.982;-8.514;2023-08-24T02:03:46;2.95;;;1.05;;
80679;SDS011;70043;51.982;-8.514;2023-08-24T02:06:13;4.43;;;0.65;;
80679;SDS011;70043;51.982;-8.514;2023-08-24T02:08:43;2.45;;;0.80;;
80679;SDS011;70043;51.982;-8.514;2023-08-24T02:11:10;1.67;;;0.60;;
80679;SDS011;70043;51.982;-8.514;2023-08-24T02:13:37;2.67;;;0.82;;
80679;SDS011;70043;51.982;-8.514;2023-08-24T02:16:08;1.38;;;0.50;;
80679;SDS011;70043;51.982;-8.514;2023-08-24T02:18:35;9.80;;;1.20;;
80679;SDS011;70043;51.982;-8.514;2023-08-24T02:21:06;2.72;;;0.82;;
80679;SDS011;70043;51.982;-8.514;2023-08-24T02:23:34;1.88;;;0.80;;
80679;SDS011;70043;51.982;-8.514;2023-08-24T02:26:01;4.80;;;0.93;;
80679;SDS011;70043;51.982;-8.514;2023-08-24T02:28:28;2.72;;;0.68;;
80679;SDS011;70043;51.982;-8.514;2023-08-24T02:30:59;3.30;;;0.57;;
80679;SDS011;70043;51.982;-8.514;2023-08-24T02:33:29;2.00;;;0.88;;
80679;SDS011;70043;51.982;-8.514;2023-08-24T02:35:56;3.80;;;0.70;;
80679;SDS011;70043;51.982;-8.514;2023-08-24T02:38:23;5.15;;;0.85;;
80679;SDS011;70043;51.982;-8.514;2023-08-24T02:40:59;4.22;;;0.82;;
80679;SDS011;70043;51.982;-8.514;2023-08-24T02:43:26;4.50;;;0.73;;
80679;SDS011;70043;51.982;-8.514;2023-08-24T02:45:59;2.80;;;0.85;;
80679;SDS011;70043;51.982;-8.514;2023-08-24T02:48:28;5.95;;;0.60;;
80679;SDS011;70043;51.982;-8.514;2023-08-24T02:50:56;4.32;;;0.60;;
80679;SDS011;70043;51.982;-8.514;2023-08-24T02:53:23;3.15;;;0.85;;
80679;SDS011;70043;51.982;-8.514;2023-08-24T02:55:50;2.10;;;1.05;;
80679;SDS011;70043;51.982;-8.514;2023-08-24T02:58:18;4.38;;;0.85;;
80679;SDS011;70043;51.982;-8.514;2023-08-24T03:00:46;2.97;;;0.65;;
80679;SDS011;70043;51.982;-8.514;2023-08-24T03:03:13;1.50;;;0.60;;
80679;SDS011;70043;51.982;-8.514;2023-08-24T03:05:42;3.33;;;0.50;;
80679;SDS011;70043;51.982;-8.514;2023-08-24T03:08:17;0.73;;;0.45;;
80679;SDS011;70043;51.982;-8.514;2023-08-24T03:10:46;1.88;;;0.70;;
80679;SDS011;70043;51.982;-8.514;2023-08-24T03:13:19;2.05;;;0.50;;
80679;SDS011;70043;51.982;-8.514;2023-08-24T03:15:48;2.45;;;0.60;;
80679;SDS011;70043;51.982;-8.514;2023-08-24T03:18:15;3.22;;;0.60;;
80679;SDS011;70043;51.982;-8.514;2023-08-24T03:20:48;1.50;;;0.60;;
80679;SDS011;70043;51.982;-8.514;2023-08-24T03:23:16;3.25;;;0.73;;
80679;SDS011;70043;51.982;-8.514;2023-08-24T03:25:44;2.70;;;0.50;;
80679;SDS011;70043;51.982;-8.514;2023-08-24T03:28:11;2.00;;;0.40;;
80679;SDS011;70043;51.982;-8.514;2023-08-24T03:30:38;2.90;;;0.50;;
80679;SDS011;70043;51.982;-8.514;2023-08-24T03:33:05;0.95;;;0.47;;
80679;SDS011;70043;51.982;-8.514;2023-08-24T03:35:35;1.70;;;0.60;;
80679;SDS011;70043;51.982;-8.514;2023-08-24T03:38:04;4.32;;;1.10;;
80679;SDS011;70043;51.982;-8.514;2023-08-24T03:40:32;1.65;;;0.45;;
80679;SDS011;70043;51.982;-8.514;2023-08-24T03:43:02;1.05;;;0.43;;
80679;SDS011;70043;51.982;-8.514;2023-08-24T03:45:32;2.60;;;0.70;;
80679;SDS011;70043;51.982;-8.514;2023-08-24T03:48:00;2.42;;;0.40;;
80679;SDS011;70043;51.982;-8.514;2023-08-24T03:50:28;1.55;;;0.40;;
80679;SDS011;70043;51.982;-8.514;2023-08-24T03:52:56;1.48;;;0.50;;
80679;SDS011;70043;51.982;-8.514;2023-08-24T03:55:24;2.13;;;0.50;;
80679;SDS011;70043;51.982;-8.514;2023-08-24T03:57:51;3.35;;;1.20;;
80679;SDS011;70043;51.982;-8.514;2023-08-24T04:00:19;1.88;;;0.60;;
80679;SDS011;70043;51.982;-8.514;2023-08-24T04:02:46;2.40;;;0.35;;
80679;SDS011;70043;51.982;-8.514;2023-08-24T04:05:13;2.42;;;0.60;;
80679;SDS011;70043;51.982;-8.514;2023-08-24T04:07:44;1.50;;;0.28;;
80679;SDS011;70043;51.982;-8.514;2023-08-24T04:10:12;1.95;;;0.35;;
80679;SDS011;70043;51.982;-8.514;2023-08-24T04:12:41;3.35;;;0.52;;
80679;SDS011;70043;51.982;-8.514;2023-08-24T04:15:09;1.13;;;0.55;;
80679;SDS011;70043;51.982;-8.514;2023-08-24T04:17:36;0.70;;;0.45;;
80679;SDS011;70043;51.982;-8.514;2023-08-24T04:20:03;2.20;;;0.35;;
80679;SDS011;70043;51.982;-8.514;2023-08-24T04:22:31;4.63;;;0.82;;
80679;SDS011;70043;51.982;-8.514;2023-08-24T04:24:58;1.45;;;0.55;;
80679;SDS011;70043;51.982;-8.514;2023-08-24T04:27:25;3.53;;;0.30;;
80679;SDS011;70043;51.982;-8.514;2023-08-24T04:29:55;1.35;;;0.45;;
80679;SDS011;70043;51.982;-8.514;2023-08-24T04:32:22;1.27;;;0.30;;
80679;SDS011;70043;51.982;-8.514;2023-08-24T04:34:50;1.80;;;0.57;;
80679;SDS011;70043;51.982;-8.514;2023-08-24T04:37:17;2.33;;;0.43;;
80679;SDS011;70043;51.982;-8.514;2023-08-24T04:39:44;1.35;;;0.30;;
80679;SDS011;70043;51.982;-8.514;2023-08-24T04:42:11;1.73;;;0.43;;
80679;SDS011;70043;51.982;-8.514;2023-08-24T04:44:37;2.33;;;0.40;;
80679;SDS011;70043;51.982;-8.514;2023-08-24T04:47:07;5.47;;;0.40;;
80679;SDS011;70043;51.982;-8.514;2023-08-24T04:49:35;0.85;;;0.43;;
80679;SDS011;70043;51.982;-8.514;2023-08-24T04:52:05;0.95;;;0.47;;
80679;SDS011;70043;51.982;-8.514;2023-08-24T04:54:33;1.52;;;0.60;;
80679;SDS011;70043;51.982;-8.514;2023-08-24T04:57:00;2.63;;;0.50;;
80679;SDS011;70043;51.982;-8.514;2023-08-24T04:59:28;1.13;;;0.35;;
80679;SDS011;70043;51.982;-8.514;2023-08-24T05:01:55;0.88;;;0.40;;
80679;SDS011;70043;51.982;-8.514;2023-08-24T05:04:23;0.52;;;0.30;;
80679;SDS011;70043;51.982;-8.514;2023-08-24T05:06:50;1.75;;;0.45;;
80679;SDS011;70043;51.982;-8.514;2023-08-24T05:09:20;3.17;;;0.40;;
80679;SDS011;70043;51.982;-8.514;2023-08-24T05:11:49;4.55;;;0.60;;
80679;SDS011;70043;51.982;-8.514;2023-08-24T05:14:15;2.25;;;0.50;;
80679;SDS011;70043;51.982;-8.514;2023-08-24T05:16:42;4.07;;;0.70;;
80679;SDS011;70043;51.982;-8.514;2023-08-24T05:19:10;2.47;;;0.65;;
80679;SDS011;70043;51.982;-8.514;2023-08-24T05:21:41;0.82;;;0.43;;
80679;SDS011;70043;51.982;-8.514;2023-08-24T05:24:08;3.60;;;0.45;;
80679;SDS011;70043;51.982;-8.514;2023-08-24T05:26:36;0.95;;;0.47;;
80679;SDS011;70043;51.982;-8.514;2023-08-24T05:29:03;1.15;;;0.43;;
80679;SDS011;70043;51.982;-8.514;2023-08-24T05:31:30;1.60;;;0.70;;
80679;SDS011;70043;51.982;-8.514;2023-08-24T05:34:01;1.65;;;0.50;;
80679;SDS011;70043;51.982;-8.514;2023-08-24T05:36:29;2.13;;;0.40;;
80679;SDS011;70043;51.982;-8.514;2023-08-24T05:39:01;1.58;;;0.50;;
80679;SDS011;70043;51.982;-8.514;2023-08-24T05:41:31;1.10;;;0.30;;
80679;SDS011;70043;51.982;-8.514;2023-08-24T05:44:04;1.77;;;0.52;;
80679;SDS011;70043;51.982;-8.514;2023-08-24T05:46:31;1.90;;;0.60;;
80679;SDS011;70043;51.982;-8.514;2023-08-24T05:48:58;3.58;;;0.80;;
80679;SDS011;70043;51.982;-8.514;2023-08-24T05:51:27;3.13;;;0.52;;
80679;SDS011;70043;51.982;-8.514;2023-08-24T05:53:54;1.13;;;0.50;;
80679;SDS011;70043;51.982;-8.514;2023-08-24T05:59:09;5.65;;;0.47;;
80679;SDS011;70043;51.982;-8.514;2023-08-24T06:01:37;3.08;;;0.47;;
80679;SDS011;70043;51.982;-8.514;2023-08-24T06:04:04;5.55;;;0.50;;
80679;SDS011;70043;51.982;-8.514;2023-08-24T06:06:31;5.00;;;1.05;;
80679;SDS011;70043;51.982;-8.514;2023-08-24T06:08:58;2.47;;;0.60;;
80679;SDS011;70043;51.982;-8.514;2023-08-24T06:11:26;0.82;;;0.32;;
80679;SDS011;70043;51.982;-8.514;2023-08-24T06:13:54;2.42;;;0.45;;
80679;SDS011;70043;51.982;-8.514;2023-08-24T06:16:23;1.00;;;0.30;;
80679;SDS011;70043;51.982;-8.514;2023-08-24T06:18:50;2.40;;;0.50;;
80679;SDS011;70043;51.982;-8.514;2023-08-24T06:21:19;3.17;;;0.65;;
80679;SDS011;70043;51.982;-8.514;2023-08-24T06:23:46;1.98;;;0.40;;
80679;SDS011;70043;51.982;-8.514;2023-08-24T06:26:13;1.48;;;0.50;;
80679;SDS011;70043;51.982;-8.514;2023-08-24T06:28:41;1.80;;;0.50;;
80679;SDS011;70043;51.982;-8.514;2023-08-24T06:31:13;4.38;;;1.02;;
80679;SDS011;70043;51.982;-8.514;2023-08-24T06:33:43;2.05;;;0.38;;
80679;SDS011;70043;51.982;-8.514;2023-08-24T06:36:10;2.53;;;0.60;;
80679;SDS011;70043;51.982;-8.514;2023-08-24T06:38:39;1.58;;;0.32;;
80679;SDS011;70043;51.982;-8.514;2023-08-24T06:41:09;3.03;;;0.70;;
80679;SDS011;70043;51.982;-8.514;2023-08-24T06:43:37;2.65;;;0.50;;
80679;SDS011;70043;51.982;-8.514;2023-08-24T06:46:04;4.30;;;0.82;;
80679;SDS011;70043;51.982;-8.514;2023-08-24T06:48:33;0.70;;;0.40;;
80679;SDS011;70043;51.982;-8.514;2023-08-24T06:51:02;1.42;;;0.63;;
80679;SDS011;70043;51.982;-8.514;2023-08-24T06:53:29;2.17;;;0.63;;
80679;SDS011;70043;51.982;-8.514;2023-08-24T06:55:57;2.38;;;0.93;;
80679;SDS011;70043;51.982;-8.514;2023-08-24T06:58:24;3.15;;;1.17;;
80679;SDS011;70043;51.982;-8.514;2023-08-24T07:00:51;4.88;;;1.48;;
80679;SDS011;70043;51.982;-8.514;2023-08-24T07:03:18;3.00;;;1.35;;
80679;SDS011;70043;51.982;-8.514;2023-08-24T07:05:46;3.35;;;1.42;;
80679;SDS011;70043;51.982;-8.514;2023-08-24T07:08:17;2.25;;;0.88;;
80679;SDS011;70043;51.982;-8.514;2023-08-24T07:10:49;3.92;;;1.10;;
80679;SDS011;70043;51.982;-8.514;2023-08-24T07:13:16;5.05;;;1.23;;
80679;SDS011;70043;51.982;-8.514;2023-08-24T07:15:45;2.35;;;1.02;;
80679;SDS011;70043;51.982;-8.514;2023-08-24T07:18:12;2.58;;;0.93;;
80679;SDS011;70043;51.982;-8.514;2023-08-24T07:20:39;2.75;;;0.80;;
80679;SDS011;70043;51.982;-8.514;2023-08-24T07:23:06;1.63;;;0.70;;
80679;SDS011;70043;51.982;-8.514;2023-08-24T07:25:38;3.83;;;0.95;;
80679;SDS011;70043;51.982;-8.514;2023-08-24T07:28:08;1.95;;;0.60;;
80679;SDS011;70043;51.982;-8.514;2023-08-24T07:30:36;2.15;;;0.60;;
80679;SDS011;70043;51.982;-8.514;2023-08-24T07:33:04;1.67;;;0.70;;
80679;SDS011;70043;51.982;-8.514;2023-08-24T07:35:32;2.35;;;0.73;;
80679;SDS011;70043;51.982;-8.514;2023-08-24T07:37:59;2.65;;;0.70;;
80679;SDS011;70043;51.982;-8.514;2023-08-24T07:40:28;2.55;;;0.57;;
80679;SDS011;70043;51.982;-8.514;2023-08-24T07:42:57;2.08;;;0.60;;
80679;SDS011;70043;51.982;-8.514;2023-08-24T07:45:24;2.53;;;0.52;;
80679;SDS011;70043;51.982;-8.514;2023-08-24T07:47:53;2.63;;;0.98;;
80679;SDS011;70043;51.982;-8.514;2023-08-24T07:50:20;2.30;;;0.80;;
80679;SDS011;70043;51.982;-8.514;2023-08-24T07:52:48;3.22;;;1.08;;
80679;SDS011;70043;51.982;-8.514;2023-08-24T07:55:15;3.65;;;0.80;;
80679;SDS011;70043;51.982;-8.514;2023-08-24T07:57:42;2.90;;;0.63;;
80679;SDS011;70043;51.982;-8.514;2023-08-24T08:00:13;1.17;;;0.30;;
80679;SDS011;70043;51.982;-8.514;2023-08-24T08:02:40;2.08;;;0.80;;
80679;SDS011;70043;51.982;-8.514;2023-08-24T08:05:07;2.20;;;0.60;;
80679;SDS011;70043;51.982;-8.514;2023-08-24T08:07:35;1.65;;;0.50;;
80679;SDS011;70043;51.982;-8.514;2023-08-24T08:10:05;1.38;;;0.50;;
80679;SDS011;70043;51.982;-8.514;2023-08-24T08:12:35;0.95;;;0.30;;
80679;SDS011;70043;51.982;-8.514;2023-08-24T08:15:03;1.92;;;0.50;;
80679;SDS011;70043;51.982;-8.514;2023-08-24T08:17:33;0.50;;;0.30;;
80679;SDS011;70043;51.982;-8.514;2023-08-24T08:20:01;4.00;;;0.73;;
80679;SDS011;70043;51.982;-8.514;2023-08-24T08:22:29;0.90;;;0.22;;
80679;SDS011;70043;51.982;-8.514;2023-08-24T08:25:00;3.15;;;0.50;;
80679;SDS011;70043;51.982;-8.514;2023-08-24T08:27:28;0.80;;;0.30;;
80679;SDS011;70043;51.982;-8.514;2023-08-24T08:29:56;5.55;;;0.50;;
80679;SDS011;70043;51.982;-8.514;2023-08-24T08:32:23;4.00;;;0.50;;
80679;SDS011;70043;51.982;-8.514;2023-08-24T08:34:54;1.55;;;0.50;;
80679;SDS011;70043;51.982;-8.514;2023-08-24T08:37:22;0.73;;;0.30;;
80679;SDS011;70043;51.982;-8.514;2023-08-24T08:39:51;1.83;;;0.50;;
80679;SDS011;70043;51.982;-8.514;2023-08-24T08:42:18;2.75;;;0.63;;
80679;SDS011;70043;51.982;-8.514;2023-08-24T08:44:46;3.15;;;0.95;;
80679;SDS011;70043;51.982;-8.514;2023-08-24T08:47:13;1.90;;;0.50;;
80679;SDS011;70043;51.982;-8.514;2023-08-24T08:49:40;2.83;;;0.35;;
80679;SDS011;70043;51.982;-8.514;2023-08-24T08:52:10;3.10;;;0.73;;
80679;SDS011;70043;51.982;-8.514;2023-08-24T08:54:37;4.45;;;0.40;;
80679;SDS011;70043;51.982;-8.514;2023-08-24T08:57:05;1.65;;;0.32;;
80679;SDS011;70043;51.982;-8.514;2023-08-24T08:59:33;0.30;;;0.20;;
80679;SDS011;70043;51.982;-8.514;2023-08-24T09:02:01;2.17;;;0.50;;
80679;SDS011;70043;51.982;-8.514;2023-08-24T09:04:28;3.30;;;0.55;;
80679;SDS011;70043;51.982;-8.514;2023-08-24T09:06:57;0.55;;;0.10;;
80679;SDS011;70043;51.982;-8.514;2023-08-24T09:09:27;4.72;;;0.50;;
80679;SDS011;70043;51.982;-8.514;2023-08-24T09:11:56;3.50;;;0.47;;
80679;SDS011;70043;51.982;-8.514;2023-08-24T09:14:25;1.75;;;0.45;;
80679;SDS011;70043;51.982;-8.514;2023-08-24T09:16:52;2.17;;;0.35;;
80679;SDS011;70043;51.982;-8.514;2023-08-24T09:19:21;1.15;;;0.40;;
80679;SDS011;70043;51.982;-8.514;2023-08-24T09:21:56;3.15;;;0.40;;
80679;SDS011;70043;51.982;-8.514;2023-08-24T09:24:34;1.17;;;0.30;;
80679;SDS011;70043;51.982;-8.514;2023-08-24T09:27:05;3.25;;;0.30;;
80679;SDS011;70043;51.982;-8.514;2023-08-24T09:29:41;2.78;;;0.52;;
80679;SDS011;70043;51.982;-8.514;2023-08-24T09:32:08;4.57;;;0.40;;
80679;SDS011;70043;51.982;-8.514;2023-08-24T09:34:36;2.33;;;0.65;;
80679;SDS011;70043;51.982;-8.514;2023-08-24T09:37:04;2.03;;;0.40;;
80679;SDS011;70043;51.982;-8.514;2023-08-24T09:39:33;1.70;;;0.28;;
80679;SDS011;70043;51.982;-8.514;2023-08-24T09:42:00;0.88;;;0.32;;
80679;SDS011;70043;51.982;-8.514;2023-08-24T09:44:29;1.27;;;0.30;;
80679;SDS011;70043;51.982;-8.514;2023-08-24T09:46:56;2.83;;;0.35;;
80679;SDS011;70043;51.982;-8.514;2023-08-24T09:49:28;1.42;;;0.40;;
80679;SDS011;70043;51.982;-8.514;2023-08-24T09:51:55;0.65;;;0.20;;
80679;SDS011;70043;51.982;-8.514;2023-08-24T09:54:24;1.17;;;0.40;;
80679;SDS011;70043;51.982;-8.514;2023-08-24T09:56:54;1.05;;;0.40;;
80679;SDS011;70043;51.982;-8.514;2023-08-24T09:59:22;1.17;;;0.35;;
80679;SDS011;70043;51.982;-8.514;2023-08-24T10:01:51;3.85;;;0.40;;
80679;SDS011;70043;51.982;-8.514;2023-08-24T10:04:21;2.22;;;0.70;;
80679;SDS011;70043;51.982;-8.514;2023-08-24T10:06:51;2.60;;;0.25;;
80679;SDS011;70043;51.982;-8.514;2023-08-24T10:09:21;1.30;;;0.45;;
80679;SDS011;70043;51.982;-8.514;2023-08-24T10:11:49;3.63;;;0.50;;
80679;SDS011;70043;51.982;-8.514;2023-08-24T10:14:21;3.25;;;0.60;;
80679;SDS011;70043;51.982;-8.514;2023-08-24T10:16:51;6.38;;;0.50;;
80679;SDS011;70043;51.982;-8.514;2023-08-24T10:19:18;1.75;;;0.65;;
80679;SDS011;70043;51.982;-8.514;2023-08-24T10:21:46;0.70;;;0.10;;
80679;SDS011;70043;51.982;-8.514;2023-08-24T10:24:14;2.60;;;0.50;;
80679;SDS011;70043;51.982;-8.514;2023-08-24T10:26:43;1.08;;;0.40;;
80679;SDS011;70043;51.982;-8.514;2023-08-24T10:29:10;1.05;;;0.30;;
80679;SDS011;70043;51.982;-8.514;2023-08-24T10:31:39;0.52;;;0.47;;
80679;SDS011;70043;51.982;-8.514;2023-08-24T10:34:06;1.13;;;0.40;;
80679;SDS011;70043;51.982;-8.514;2023-08-24T10:36:34;1.80;;;0.40;;
80679;SDS011;70043;51.982;-8.514;2023-08-24T10:39:02;1.75;;;0.40;;
80679;SDS011;70043;51.982;-8.514;2023-08-24T10:41:43;3.30;;;0.50;;
80679;SDS011;70043;51.982;-8.514;2023-08-24T10:44:19;4.22;;;0.40;;
80679;SDS011;70043;51.982;-8.514;2023-08-24T10:46:58;1.92;;;0.30;;
80679;SDS011;70043;51.982;-8.514;2023-08-24T10:49:33;2.83;;;0.50;;
80679;SDS011;70043;51.982;-8.514;2023-08-24T10:54:42;0.95;;;0.28;;
80679;SDS011;70043;51.982;-8.514;2023-08-24T10:57:16;1.00;;;0.52;;
80679;SDS011;70043;51.982;-8.514;2023-08-24T10:59:43;0.50;;;0.20;;
80679;SDS011;70043;51.982;-8.514;2023-08-24T11:02:22;3.13;;;0.50;;
80679;SDS011;70043;51.982;-8.514;2023-08-24T11:05:05;3.08;;;0.55;;
80679;SDS011;70043;51.982;-8.514;2023-08-24T11:07:32;1.05;;;0.30;;
80679;SDS011;70043;51.982;-8.514;2023-08-24T11:09:59;1.20;;;0.40;;
80679;SDS011;70043;51.982;-8.514;2023-08-24T11:15:29;3.92;;;0.30;;
80679;SDS011;70043;51.982;-8.514;2023-08-24T11:20:40;1.10;;;0.75;;
80679;SDS011;70043;51.982;-8.514;2023-08-24T11:23:09;3.10;;;0.47;;
80679;SDS011;70043;51.982;-8.514;2023-08-24T11:25:37;1.88;;;0.50;;
80679;SDS011;70043;51.982;-8.514;2023-08-24T11:28:05;1.25;;;0.30;;
80679;SDS011;70043;51.982;-8.514;2023-08-24T11:30:31;1.40;;;0.50;;
80679;SDS011;70043;51.982;-8.514;2023-08-24T11:32:59;1.10;;;0.40;;
80679;SDS011;70043;51.982;-8.514;2023-08-24T11:35:26;1.27;;;0.40;;
80679;SDS011;70043;51.982;-8.514;2023-08-24T11:37:55;1.42;;;0.38;;
80679;SDS011;70043;51.982;-8.514;2023-08-24T11:40:22;0.95;;;0.17;;
80679;SDS011;70043;51.982;-8.514;2023-08-24T11:42:54;0.98;;;0.20;;
80679;SDS011;70043;51.982;-8.514;2023-08-24T11:45:21;1.60;;;0.32;;
80679;SDS011;70043;51.982;-8.514;2023-08-24T11:47:49;2.70;;;0.30;;
80679;SDS011;70043;51.982;-8.514;2023-08-24T11:50:16;1.75;;;0.40;;
80679;SDS011;70043;51.982;-8.514;2023-08-24T11:52:43;2.20;;;0.20;;
80679;SDS011;70043;51.982;-8.514;2023-08-24T11:55:12;0.55;;;0.28;;
80679;SDS011;70043;51.982;-8.514;2023-08-24T11:57:39;0.85;;;0.30;;
80679;SDS011;70043;51.982;-8.514;2023-08-24T12:00:07;1.98;;;0.40;;
80679;SDS011;70043;51.982;-8.514;2023-08-24T12:02:34;1.70;;;0.40;;
80679;SDS011;70043;51.982;-8.514;2023-08-24T12:05:05;4.63;;;0.40;;
80679;SDS011;70043;51.982;-8.514;2023-08-24T12:07:32;1.50;;;0.30;;
80679;SDS011;70043;51.982;-8.514;2023-08-24T12:10:00;1.45;;;0.45;;
80679;SDS011;70043;51.982;-8.514;2023-08-24T12:12:30;1.60;;;0.30;;
80679;SDS011;70043;51.982;-8.514;2023-08-24T12:14:57;0.90;;;0.20;;
80679;SDS011;70043;51.982;-8.514;2023-08-24T12:17:24;1.30;;;0.82;;
80679;SDS011;70043;51.982;-8.514;2023-08-24T12:19:58;2.03;;;0.55;;
80679;SDS011;70043;51.982;-8.514;2023-08-24T12:22:26;0.88;;;0.40;;
80679;SDS011;70043;51.982;-8.514;2023-08-24T12:24:53;1.05;;;0.52;;
80679;SDS011;70043;51.982;-8.514;2023-08-24T12:27:20;0.65;;;0.20;;
80679;SDS011;70043;51.982;-8.514;2023-08-24T12:29:49;1.83;;;0.30;;
80679;SDS011;70043;51.982;-8.514;2023-08-24T12:32:16;0.70;;;0.35;;
80679;SDS011;70043;51.982;-8.514;2023-08-24T12:34:45;0.82;;;0.30;;
80679;SDS011;70043;51.982;-8.514;2023-08-24T12:37:13;0.50;;;0.22;;
80679;SDS011;70043;51.982;-8.514;2023-08-24T12:39:41;2.42;;;0.30;;
80679;SDS011;70043;51.982;-8.514;2023-08-24T12:42:09;1.10;;;0.22;;
80679;SDS011;70043;51.982;-8.514;2023-08-24T12:44:39;2.97;;;0.40;;
80679;SDS011;70043;51.982;-8.514;2023-08-24T12:47:08;1.30;;;0.35;;
80679;SDS011;70043;51.982;-8.514;2023-08-24T12:49:35;1.20;;;0.60;;
80679;SDS011;70043;51.982;-8.514;2023-08-24T12:52:01;2.42;;;0.20;;
80679;SDS011;70043;51.982;-8.514;2023-08-24T12:54:29;0.63;;;0.22;;
80679;SDS011;70043;51.982;-8.514;2023-08-24T12:56:56;0.57;;;0.28;;
80679;SDS011;70043;51.982;-8.514;2023-08-24T12:59:23;1.10;;;0.30;;
80679;SDS011;70043;51.982;-8.514;2023-08-24T13:01:50;1.65;;;0.20;;
80679;SDS011;70043;51.982;-8.514;2023-08-24T13:04:19;1.83;;;0.22;;
80679;SDS011;70043;51.982;-8.514;2023-08-24T13:06:46;2.75;;;0.60;;
80679;SDS011;70043;51.982;-8.514;2023-08-24T13:09:13;1.33;;;0.30;;
80679;SDS011;70043;51.982;-8.514;2023-08-24T13:11:43;3.65;;;0.30;;
80679;SDS011;70043;51.982;-8.514;2023-08-24T13:14:10;1.42;;;0.50;;
80679;SDS011;70043;51.982;-8.514;2023-08-24T13:16:37;5.40;;;0.40;;
80679;SDS011;70043;51.982;-8.514;2023-08-24T13:19:05;8.57;;;0.70;;
80679;SDS011;70043;51.982;-8.514;2023-08-24T13:21:34;1.23;;;0.20;;
80679;SDS011;70043;51.982;-8.514;2023-08-24T13:24:02;0.95;;;0.30;;
80679;SDS011;70043;51.982;-8.514;2023-08-24T13:26:29;0.60;;;0.20;;
80679;SDS011;70043;51.982;-8.514;2023-08-24T13:28:56;2.55;;;0.17;;
80679;SDS011;70043;51.982;-8.514;2023-08-24T13:31:23;0.95;;;0.30;;
80679;SDS011;70043;51.982;-8.514;2023-08-24T13:33:50;1.42;;;0.40;;
80679;SDS011;70043;51.982;-8.514;2023-08-24T13:36:17;2.05;;;0.25;;
80679;SDS011;70043;51.982;-8.514;2023-08-24T13:38:47;0.98;;;0.43;;
80679;SDS011;70043;51.982;-8.514;2023-08-24T13:41:15;1.08;;;0.40;;
80679;SDS011;70043;51.982;-8.514;2023-08-24T13:43:42;1.35;;;0.20;;
80679;SDS011;70043;51.982;-8.514;2023-08-24T13:46:09;4.25;;;0.35;;
80679;SDS011;70043;51.982;-8.514;2023-08-24T13:48:36;1.70;;;0.40;;
80679;SDS011;70043;51.982;-8.514;2023-08-24T13:51:04;3.72;;;0.40;;
80679;SDS011;70043;51.982;-8.514;2023-08-24T13:53:33;3.78;;;0.50;;
80679;SDS011;70043;51.982;-8.514;2023-08-24T13:56:02;3.33;;;0.47;;
80679;SDS011;70043;51.982;-8.514;2023-08-24T13:58:28;3.75;;;0.50;;
80679;SDS011;70043;51.982;-8.514;2023-08-24T14:00:57;2.95;;;0.30;;
80679;SDS011;70043;51.982;-8.514;2023-08-24T14:03:24;2.25;;;0.30;;
80679;SDS011;70043;51.982;-8.514;2023-08-24T14:05:54;0.55;;;0.25;;
80679;SDS011;70043;51.982;-8.514;2023-08-24T14:08:21;1.63;;;0.45;;
80679;SDS011;70043;51.982;-8.514;2023-08-24T14:10:49;1.05;;;0.35;;
80679;SDS011;70043;51.982;-8.514;2023-08-24T14:13:21;1.85;;;0.45;;
80679;SDS011;70043;51.982;-8.514;2023-08-24T14:15:50;1.83;;;0.52;;
80679;SDS011;70043;51.982;-8.514;2023-08-24T14:18:18;1.98;;;0.40;;
80679;SDS011;70043;51.982;-8.514;2023-08-24T14:20:46;2.13;;;0.30;;
80679;SDS011;70043;51.982;-8.514;2023-08-24T14:23:13;0.65;;;0.30;;
80679;SDS011;70043;51.982;-8.514;2023-08-24T14:25:40;1.17;;;0.30;;
80679;SDS011;70043;51.982;-8.514;2023-08-24T14:28:07;0.65;;;0.30;;
80679;SDS011;70043;51.982;-8.514;2023-08-24T14:30:36;1.67;;;0.20;;
80679;SDS011;70043;51.982;-8.514;2023-08-24T14:33:03;3.15;;;0.80;;
80679;SDS011;70043;51.982;-8.514;2023-08-24T14:35:30;0.47;;;0.20;;
80679;SDS011;70043;51.982;-8.514;2023-08-24T14:37:57;0.85;;;0.22;;
80679;SDS011;70043;51.982;-8.514;2023-08-24T14:40:24;1.48;;;0.20;;
80679;SDS011;70043;51.982;-8.514;2023-08-24T14:42:51;0.25;;;0.10;;
80679;SDS011;70043;51.982;-8.514;2023-08-24T14:45:22;0.57;;;0.22;;
80679;SDS011;70043;51.982;-8.514;2023-08-24T14:47:50;0.60;;;0.13;;
80679;SDS011;70043;51.982;-8.514;2023-08-24T14:50:17;3.88;;;0.30;;
80679;SDS011;70043;51.982;-8.514;2023-08-24T14:52:45;0.68;;;0.10;;
80679;SDS011;70043;51.982;-8.514;2023-08-24T14:55:12;0.98;;;0.40;;